sensor_id;sensor_type;location;lat;lon;timestamp;temperature;humidity
45983;DHT22;31711;47.158;7.346;2023-02-28T00:00:16;-0.40;99.90
45983;DHT22;31711;47.158;7.346;2023-02-28T00:02:43;-0.40;99.90
45983;DHT22;31711;47.158;7.346;2023-02-28T00:05:11;-0.50;99.90
45983;DHT22;31711;47.158;7.346;2023-02-28T00:07:38;-0.50;99.90
45983;DHT22;31711;47.158;7.346;2023-02-28T00:10:05;-0.40;99.90
45983;DHT22;31711;47.158;7.346;2023-02-28T00:12:34;-0.40;99.90
45983;DHT22;31711;47.158;7.346;2023-02-28T00:15:00;-0.50;99.90
45983;DHT22;31711;47.158;7.346;2023-02-28T00:17:26;-0.40;99.90
45983;DHT22;31711;47.158;7.346;2023-02-28T00:19:52;-0.40;99.90
45983;DHT22;31711;47.158;7.346;2023-02-28T00:22:20;-0.40;99.90
45983;DHT22;31711;47.158;7.346;2023-02-28T00:24:46;-0.40;99.90
45983;DHT22;31711;47.158;7.346;2023-02-28T00:27:13;-0.40;99.90
45983;DHT22;31711;47.158;7.346;2023-02-28T00:29:40;-0.40;99.90
45983;DHT22;31711;47.158;7.346;2023-02-28T00:32:06;-0.50;99.90
45983;DHT22;31711;47.158;7.346;2023-02-28T00:34:32;-0.40;99.90
45983;DHT22;31711;47.158;7.346;2023-02-28T00:37:07;-0.40;99.90
45983;DHT22;31711;47.158;7.346;2023-02-28T00:39:35;-0.40;99.90
45983;DHT22;31711;47.158;7.346;2023-02-28T00:42:02;-0.40;99.90
45983;DHT22;31711;47.158;7.346;2023-02-28T00:44:29;-0.40;99.90
45983;DHT22;31711;47.158;7.346;2023-02-28T00:46:56;-0.40;99.90
45983;DHT22;31711;47.158;7.346;2023-02-28T00:49:22;-0.30;99.90
45983;DHT22;31711;47.158;7.346;2023-02-28T00:51:48;-0.40;99.90
45983;DHT22;31711;47.158;7.346;2023-02-28T00:54:15;-0.40;99.90
45983;DHT22;31711;47.158;7.346;2023-02-28T00:56:41;-0.40;99.90
45983;DHT22;31711;47.158;7.346;2023-02-28T00:59:07;-0.40;99.90
45983;DHT22;31711;47.158;7.346;2023-02-28T01:01:33;-0.40;99.90
45983;DHT22;31711;47.158;7.346;2023-02-28T01:03:59;-0.40;99.90
45983;DHT22;31711;47.158;7.346;2023-02-28T01:06:25;-0.40;99.90
45983;DHT22;31711;47.158;7.346;2023-02-28T01:08:51;-0.40;99.90
45983;DHT22;31711;47.158;7.346;2023-02-28T01:11:17;-0.40;99.90
45983;DHT22;31711;47.158;7.346;2023-02-28T01:13:45;-0.40;99.90
45983;DHT22;31711;47.158;7.346;2023-02-28T01:16:12;-0.40;99.90
45983;DHT22;31711;47.158;7.346;2023-02-28T01:18:38;-0.40;99.90
45983;DHT22;31711;47.158;7.346;2023-02-28T01:21:10;-0.50;99.90
45983;DHT22;31711;47.158;7.346;2023-02-28T01:23:36;-0.40;99.90
45983;DHT22;31711;47.158;7.346;2023-02-28T01:26:13;-0.40;99.90
45983;DHT22;31711;47.158;7.346;2023-02-28T01:28:40;-0.40;99.90
45983;DHT22;31711;47.158;7.346;2023-02-28T01:31:06;-0.40;99.90
45983;DHT22;31711;47.158;7.346;2023-02-28T01:33:33;-0.40;99.90
45983;DHT22;31711;47.158;7.346;2023-02-28T01:36:00;-0.40;99.90
45983;DHT22;31711;47.158;7.346;2023-02-28T01:38:27;-0.40;99.90
45983;DHT22;31711;47.158;7.346;2023-02-28T01:40:53;-0.40;99.90
45983;DHT22;31711;47.158;7.346;2023-02-28T01:46:09;-0.50;99.90
45983;DHT22;31711;47.158;7.346;2023-02-28T01:48:39;-0.50;99.90
45983;DHT22;31711;47.158;7.346;2023-02-28T01:51:10;-0.50;99.90
45983;DHT22;31711;47.158;7.346;2023-02-28T01:53:44;-0.40;99.90
45983;DHT22;31711;47.158;7.346;2023-02-28T01:56:12;-0.50;99.90
45983;DHT22;31711;47.158;7.346;2023-02-28T01:58:50;-0.50;99.90
45983;DHT22;31711;47.158;7.346;2023-02-28T02:01:19;-0.50;99.90
45983;DHT22;31711;47.158;7.346;2023-02-28T02:03:54;-0.40;99.90
45983;DHT22;31711;47.158;7.346;2023-02-28T02:06:43;-0.40;99.90
45983;DHT22;31711;47.158;7.346;2023-02-28T02:09:10;-0.50;99.90
45983;DHT22;31711;47.158;7.346;2023-02-28T02:11:36;-0.50;99.90
45983;DHT22;31711;47.158;7.346;2023-02-28T02:19:52;-0.50;99.90
45983;DHT22;31711;47.158;7.346;2023-02-28T02:22:38;-0.50;99.90
45983;DHT22;31711;47.158;7.346;2023-02-28T02:25:32;-0.50;99.90
45983;DHT22;31711;47.158;7.346;2023-02-28T02:30:42;-0.50;99.90
45983;DHT22;31711;47.158;7.346;2023-02-28T02:33:27;-0.50;99.90
45983;DHT22;31711;47.158;7.346;2023-02-28T02:44:06;-0.50;99.90
45983;DHT22;31711;47.158;7.346;2023-02-28T02:46:47;-0.60;99.90
45983;DHT22;31711;47.158;7.346;2023-02-28T02:49:24;-0.50;99.90
45983;DHT22;31711;47.158;7.346;2023-02-28T02:51:52;-0.50;99.90
45983;DHT22;31711;47.158;7.346;2023-02-28T02:54:31;-0.40;99.90
45983;DHT22;31711;47.158;7.346;2023-02-28T03:00:08;-0.50;99.90
45983;DHT22;31711;47.158;7.346;2023-02-28T03:02:36;-0.50;99.90
45983;DHT22;31711;47.158;7.346;2023-02-28T03:05:29;-0.50;99.90
45983;DHT22;31711;47.158;7.346;2023-02-28T03:07:56;-0.50;99.90
45983;DHT22;31711;47.158;7.346;2023-02-28T03:10:41;-0.50;99.90
45983;DHT22;31711;47.158;7.346;2023-02-28T03:13:32;-0.50;99.90
45983;DHT22;31711;47.158;7.346;2023-02-28T03:21:29;-0.50;99.90
45983;DHT22;31711;47.158;7.346;2023-02-28T03:24:19;-0.50;99.90
45983;DHT22;31711;47.158;7.346;2023-02-28T03:27:01;-0.50;99.90
45983;DHT22;31711;47.158;7.346;2023-02-28T03:29:41;-0.40;99.90
45983;DHT22;31711;47.158;7.346;2023-02-28T03:32:28;-0.50;99.90
45983;DHT22;31711;47.158;7.346;2023-02-28T03:35:23;-0.50;99.90
45983;DHT22;31711;47.158;7.346;2023-02-28T03:37:58;-0.50;99.90
45983;DHT22;31711;47.158;7.346;2023-02-28T03:40:29;-0.40;99.90
45983;DHT22;31711;47.158;7.346;2023-02-28T03:43:00;-0.50;99.90
45983;DHT22;31711;47.158;7.346;2023-02-28T03:45:35;-0.40;99.90
45983;DHT22;31711;47.158;7.346;2023-02-28T03:48:31;-0.50;99.90
45983;DHT22;31711;47.158;7.346;2023-02-28T03:50:59;-0.50;99.90
45983;DHT22;31711;47.158;7.346;2023-02-28T03:53:31;-0.40;99.90
45983;DHT22;31711;47.158;7.346;2023-02-28T03:56:11;-0.40;99.90
45983;DHT22;31711;47.158;7.346;2023-02-28T04:01:39;-0.40;99.90
45983;DHT22;31711;47.158;7.346;2023-02-28T04:04:08;-0.40;99.90
45983;DHT22;31711;47.158;7.346;2023-02-28T04:06:35;-0.40;99.90
45983;DHT22;31711;47.158;7.346;2023-02-28T04:09:03;-0.40;99.90
45983;DHT22;31711;47.158;7.346;2023-02-28T04:11:42;-0.30;99.90
45983;DHT22;31711;47.158;7.346;2023-02-28T04:14:10;-0.40;99.90
45983;DHT22;31711;47.158;7.346;2023-02-28T04:16:39;-0.40;99.90
45983;DHT22;31711;47.158;7.346;2023-02-28T04:19:06;-0.50;99.90
45983;DHT22;31711;47.158;7.346;2023-02-28T04:21:37;-0.50;99.90
45983;DHT22;31711;47.158;7.346;2023-02-28T04:24:05;-0.50;99.90
45983;DHT22;31711;47.158;7.346;2023-02-28T04:26:33;-0.50;99.90
45983;DHT22;31711;47.158;7.346;2023-02-28T04:29:00;-0.50;99.90
45983;DHT22;31711;47.158;7.346;2023-02-28T04:31:26;-0.40;99.90
45983;DHT22;31711;47.158;7.346;2023-02-28T04:33:52;-0.40;99.90
45983;DHT22;31711;47.158;7.346;2023-02-28T04:36:18;-0.40;99.90
45983;DHT22;31711;47.158;7.346;2023-02-28T04:38:45;-0.30;99.90
45983;DHT22;31711;47.158;7.346;2023-02-28T04:41:12;-0.40;99.90
45983;DHT22;31711;47.158;7.346;2023-02-28T04:43:38;-0.40;99.90
45983;DHT22;31711;47.158;7.346;2023-02-28T04:46:05;-0.30;99.90
45983;DHT22;31711;47.158;7.346;2023-02-28T04:48:34;-0.30;99.90
45983;DHT22;31711;47.158;7.346;2023-02-28T04:51:04;-0.40;99.90
45983;DHT22;31711;47.158;7.346;2023-02-28T04:53:30;-0.40;99.90
45983;DHT22;31711;47.158;7.346;2023-02-28T04:55:57;-0.40;99.90
45983;DHT22;31711;47.158;7.346;2023-02-28T04:58:23;-0.30;99.90
45983;DHT22;31711;47.158;7.346;2023-02-28T05:00:50;-0.40;99.90
45983;DHT22;31711;47.158;7.346;2023-02-28T05:03:16;-0.40;99.90
45983;DHT22;31711;47.158;7.346;2023-02-28T05:05:42;-0.40;99.90
45983;DHT22;31711;47.158;7.346;2023-02-28T05:08:08;-0.40;99.90
45983;DHT22;31711;47.158;7.346;2023-02-28T05:10:35;-0.40;99.90
45983;DHT22;31711;47.158;7.346;2023-02-28T05:13:02;-0.30;99.90
45983;DHT22;31711;47.158;7.346;2023-02-28T05:15:28;-0.40;99.90
45983;DHT22;31711;47.158;7.346;2023-02-28T05:17:54;-0.40;99.90
45983;DHT22;31711;47.158;7.346;2023-02-28T05:20:20;-0.40;99.90
45983;DHT22;31711;47.158;7.346;2023-02-28T05:22:46;-0.50;99.90
45983;DHT22;31711;47.158;7.346;2023-02-28T05:25:19;-0.50;99.90
45983;DHT22;31711;47.158;7.346;2023-02-28T05:27:45;-0.50;99.90
45983;DHT22;31711;47.158;7.346;2023-02-28T05:30:11;-0.50;99.90
45983;DHT22;31711;47.158;7.346;2023-02-28T05:32:43;-0.40;99.90
45983;DHT22;31711;47.158;7.346;2023-02-28T05:35:12;-0.40;99.90
45983;DHT22;31711;47.158;7.346;2023-02-28T05:37:39;-0.40;99.90
45983;DHT22;31711;47.158;7.346;2023-02-28T05:40:06;-0.40;99.90
45983;DHT22;31711;47.158;7.346;2023-02-28T05:42:34;-0.40;99.90
45983;DHT22;31711;47.158;7.346;2023-02-28T05:45:00;-0.50;99.90
45983;DHT22;31711;47.158;7.346;2023-02-28T05:47:26;-0.50;99.90
45983;DHT22;31711;47.158;7.346;2023-02-28T05:49:52;-0.50;99.90
45983;DHT22;31711;47.158;7.346;2023-02-28T05:52:18;-0.40;99.90
45983;DHT22;31711;47.158;7.346;2023-02-28T05:54:44;-0.40;99.90
45983;DHT22;31711;47.158;7.346;2023-02-28T05:57:11;-0.40;99.90
45983;DHT22;31711;47.158;7.346;2023-02-28T05:59:37;-0.40;99.90
45983;DHT22;31711;47.158;7.346;2023-02-28T06:02:10;-0.40;99.90
45983;DHT22;31711;47.158;7.346;2023-02-28T06:04:37;-0.40;99.90
45983;DHT22;31711;47.158;7.346;2023-02-28T06:07:03;-0.40;99.90
45983;DHT22;31711;47.158;7.346;2023-02-28T06:09:29;-0.40;99.90
45983;DHT22;31711;47.158;7.346;2023-02-28T06:11:58;-0.40;99.90
45983;DHT22;31711;47.158;7.346;2023-02-28T06:14:24;-0.40;99.90
45983;DHT22;31711;47.158;7.346;2023-02-28T06:16:50;-0.40;99.90
45983;DHT22;31711;47.158;7.346;2023-02-28T06:19:16;-0.40;99.90
45983;DHT22;31711;47.158;7.346;2023-02-28T06:21:43;-0.40;99.90
45983;DHT22;31711;47.158;7.346;2023-02-28T06:24:09;-0.40;99.90
45983;DHT22;31711;47.158;7.346;2023-02-28T06:26:35;-0.50;99.90
45983;DHT22;31711;47.158;7.346;2023-02-28T06:29:01;-0.50;99.90
45983;DHT22;31711;47.158;7.346;2023-02-28T06:31:28;-0.40;99.90
45983;DHT22;31711;47.158;7.346;2023-02-28T06:33:55;-0.40;99.90
45983;DHT22;31711;47.158;7.346;2023-02-28T06:36:21;-0.50;99.90
45983;DHT22;31711;47.158;7.346;2023-02-28T06:38:47;-0.40;99.90
45983;DHT22;31711;47.158;7.346;2023-02-28T06:41:17;-0.40;99.90
45983;DHT22;31711;47.158;7.346;2023-02-28T06:43:43;-0.40;99.90
45983;DHT22;31711;47.158;7.346;2023-02-28T06:46:12;-0.40;99.90
45983;DHT22;31711;47.158;7.346;2023-02-28T06:48:39;-0.30;99.90
45983;DHT22;31711;47.158;7.346;2023-02-28T06:51:13;-0.40;99.90
45983;DHT22;31711;47.158;7.346;2023-02-28T06:53:40;-0.40;99.90
45983;DHT22;31711;47.158;7.346;2023-02-28T06:56:08;-0.40;99.90
45983;DHT22;31711;47.158;7.346;2023-02-28T06:58:35;-0.40;99.90
45983;DHT22;31711;47.158;7.346;2023-02-28T07:01:02;-0.30;99.90
45983;DHT22;31711;47.158;7.346;2023-02-28T07:03:28;-0.30;99.90
45983;DHT22;31711;47.158;7.346;2023-02-28T07:05:54;-0.30;99.90
45983;DHT22;31711;47.158;7.346;2023-02-28T07:08:23;-0.40;99.90
45983;DHT22;31711;47.158;7.346;2023-02-28T07:10:56;-0.30;99.90
45983;DHT22;31711;47.158;7.346;2023-02-28T07:13:23;-0.30;99.90
45983;DHT22;31711;47.158;7.346;2023-02-28T07:16:04;-0.30;99.90
45983;DHT22;31711;47.158;7.346;2023-02-28T07:18:31;-0.30;99.90
45983;DHT22;31711;47.158;7.346;2023-02-28T07:20:57;-0.30;99.90
45983;DHT22;31711;47.158;7.346;2023-02-28T07:23:24;-0.30;99.90
45983;DHT22;31711;47.158;7.346;2023-02-28T07:25:50;-0.30;99.90
45983;DHT22;31711;47.158;7.346;2023-02-28T07:28:16;-0.20;99.90
45983;DHT22;31711;47.158;7.346;2023-02-28T07:30:43;-0.30;99.90
45983;DHT22;31711;47.158;7.346;2023-02-28T07:33:09;-0.20;99.90
45983;DHT22;31711;47.158;7.346;2023-02-28T07:35:35;-0.20;99.90
45983;DHT22;31711;47.158;7.346;2023-02-28T07:38:02;-0.30;99.90
45983;DHT22;31711;47.158;7.346;2023-02-28T07:40:28;-0.20;99.90
45983;DHT22;31711;47.158;7.346;2023-02-28T07:42:54;-0.20;99.90
45983;DHT22;31711;47.158;7.346;2023-02-28T07:45:20;-0.20;99.90
45983;DHT22;31711;47.158;7.346;2023-02-28T07:47:46;-0.20;99.90
45983;DHT22;31711;47.158;7.346;2023-02-28T07:50:14;-0.10;99.90
45983;DHT22;31711;47.158;7.346;2023-02-28T07:52:41;0.00;99.90
45983;DHT22;31711;47.158;7.346;2023-02-28T07:55:08;0.00;99.90
45983;DHT22;31711;47.158;7.346;2023-02-28T07:57:35;0.00;99.90
45983;DHT22;31711;47.158;7.346;2023-02-28T08:00:03;0.10;99.90
45983;DHT22;31711;47.158;7.346;2023-02-28T08:02:29;0.10;99.90
45983;DHT22;31711;47.158;7.346;2023-02-28T08:04:55;0.10;99.90
45983;DHT22;31711;47.158;7.346;2023-02-28T08:07:22;0.20;99.90
45983;DHT22;31711;47.158;7.346;2023-02-28T08:09:47;0.10;99.90
45983;DHT22;31711;47.158;7.346;2023-02-28T08:12:13;0.20;99.90
45983;DHT22;31711;47.158;7.346;2023-02-28T08:14:40;0.30;99.90
45983;DHT22;31711;47.158;7.346;2023-02-28T08:17:06;0.40;99.90
45983;DHT22;31711;47.158;7.346;2023-02-28T08:19:32;0.30;99.90
45983;DHT22;31711;47.158;7.346;2023-02-28T08:21:58;0.30;99.90
45983;DHT22;31711;47.158;7.346;2023-02-28T08:24:24;0.20;99.90
45983;DHT22;31711;47.158;7.346;2023-02-28T08:26:50;0.30;99.90
45983;DHT22;31711;47.158;7.346;2023-02-28T08:29:16;0.30;99.90
45983;DHT22;31711;47.158;7.346;2023-02-28T08:31:42;0.30;99.90
45983;DHT22;31711;47.158;7.346;2023-02-28T08:34:11;0.30;99.90
45983;DHT22;31711;47.158;7.346;2023-02-28T08:36:38;0.30;99.90
45983;DHT22;31711;47.158;7.346;2023-02-28T08:39:05;0.40;99.90
45983;DHT22;31711;47.158;7.346;2023-02-28T08:41:31;0.40;99.90
45983;DHT22;31711;47.158;7.346;2023-02-28T08:43:57;0.50;99.90
45983;DHT22;31711;47.158;7.346;2023-02-28T08:46:24;0.50;99.90
45983;DHT22;31711;47.158;7.346;2023-02-28T08:48:54;0.50;99.90
45983;DHT22;31711;47.158;7.346;2023-02-28T08:51:22;0.60;99.90
45983;DHT22;31711;47.158;7.346;2023-02-28T08:53:57;0.50;99.90
45983;DHT22;31711;47.158;7.346;2023-02-28T08:56:23;0.50;99.90
45983;DHT22;31711;47.158;7.346;2023-02-28T08:58:50;0.50;99.90
45983;DHT22;31711;47.158;7.346;2023-02-28T09:01:22;0.60;99.90
45983;DHT22;31711;47.158;7.346;2023-02-28T09:03:49;0.60;99.90
45983;DHT22;31711;47.158;7.346;2023-02-28T09:06:17;0.60;99.90
45983;DHT22;31711;47.158;7.346;2023-02-28T09:08:44;0.70;99.90
45983;DHT22;31711;47.158;7.346;2023-02-28T09:11:12;0.60;99.90
45983;DHT22;31711;47.158;7.346;2023-02-28T09:13:38;0.60;99.90
45983;DHT22;31711;47.158;7.346;2023-02-28T09:16:06;0.60;99.90
45983;DHT22;31711;47.158;7.346;2023-02-28T09:18:37;0.70;99.90
45983;DHT22;31711;47.158;7.346;2023-02-28T09:21:08;0.70;99.90
45983;DHT22;31711;47.158;7.346;2023-02-28T09:23:34;0.70;99.90
45983;DHT22;31711;47.158;7.346;2023-02-28T09:26:01;0.90;99.90
45983;DHT22;31711;47.158;7.346;2023-02-28T09:28:27;0.90;99.90
45983;DHT22;31711;47.158;7.346;2023-02-28T09:30:54;1.00;99.90
45983;DHT22;31711;47.158;7.346;2023-02-28T09:33:21;1.00;99.90
45983;DHT22;31711;47.158;7.346;2023-02-28T09:35:48;1.00;99.90
45983;DHT22;31711;47.158;7.346;2023-02-28T09:38:14;1.00;99.90
45983;DHT22;31711;47.158;7.346;2023-02-28T09:40:58;1.00;99.90
45983;DHT22;31711;47.158;7.346;2023-02-28T09:43:34;1.10;99.90
45983;DHT22;31711;47.158;7.346;2023-02-28T09:48:41;1.00;99.90
45983;DHT22;31711;47.158;7.346;2023-02-28T09:53:56;1.40;99.90
45983;DHT22;31711;47.158;7.346;2023-02-28T09:56:28;1.50;99.90
45983;DHT22;31711;47.158;7.346;2023-02-28T09:59:05;1.50;99.90
45983;DHT22;31711;47.158;7.346;2023-02-28T10:04:33;1.40;99.90
45983;DHT22;31711;47.158;7.346;2023-02-28T10:07:10;1.40;99.90
45983;DHT22;31711;47.158;7.346;2023-02-28T10:09:45;1.40;99.90
45983;DHT22;31711;47.158;7.346;2023-02-28T10:12:14;1.60;99.90
45983;DHT22;31711;47.158;7.346;2023-02-28T10:14:45;1.70;99.90
45983;DHT22;31711;47.158;7.346;2023-02-28T10:17:17;1.80;99.90
45983;DHT22;31711;47.158;7.346;2023-02-28T10:19:59;1.90;99.90
45983;DHT22;31711;47.158;7.346;2023-02-28T10:22:56;1.90;99.90
45983;DHT22;31711;47.158;7.346;2023-02-28T10:25:27;2.10;99.90
45983;DHT22;31711;47.158;7.346;2023-02-28T10:28:10;2.20;99.90
45983;DHT22;31711;47.158;7.346;2023-02-28T10:30:43;1.80;99.90
45983;DHT22;31711;47.158;7.346;2023-02-28T10:33:31;1.90;99.90
45983;DHT22;31711;47.158;7.346;2023-02-28T10:35:58;1.90;99.90
45983;DHT22;31711;47.158;7.346;2023-02-28T10:38:26;2.10;99.90
45983;DHT22;31711;47.158;7.346;2023-02-28T10:41:17;2.10;99.90
45983;DHT22;31711;47.158;7.346;2023-02-28T10:43:52;2.20;99.90
45983;DHT22;31711;47.158;7.346;2023-02-28T10:46:19;2.10;99.90
45983;DHT22;31711;47.158;7.346;2023-02-28T10:49:20;2.10;99.90
45983;DHT22;31711;47.158;7.346;2023-02-28T10:51:49;2.10;99.90
45983;DHT22;31711;47.158;7.346;2023-02-28T10:54:24;2.30;99.90
45983;DHT22;31711;47.158;7.346;2023-02-28T10:57:15;2.40;99.90
45983;DHT22;31711;47.158;7.346;2023-02-28T10:59:41;2.60;99.90
45983;DHT22;31711;47.158;7.346;2023-02-28T11:04:55;2.20;99.90
45983;DHT22;31711;47.158;7.346;2023-02-28T11:07:23;2.40;99.90
45983;DHT22;31711;47.158;7.346;2023-02-28T11:09:56;2.30;99.90
45983;DHT22;31711;47.158;7.346;2023-02-28T11:12:25;2.30;99.90
45983;DHT22;31711;47.158;7.346;2023-02-28T11:15:04;2.60;99.90
45983;DHT22;31711;47.158;7.346;2023-02-28T11:17:32;2.80;99.90
45983;DHT22;31711;47.158;7.346;2023-02-28T11:20:01;2.90;99.90
45983;DHT22;31711;47.158;7.346;2023-02-28T11:22:31;2.90;99.90
45983;DHT22;31711;47.158;7.346;2023-02-28T11:25:13;3.10;99.90
45983;DHT22;31711;47.158;7.346;2023-02-28T11:30:31;3.30;99.90
45983;DHT22;31711;47.158;7.346;2023-02-28T11:32:58;3.50;99.90
45983;DHT22;31711;47.158;7.346;2023-02-28T11:35:42;3.70;99.90
45983;DHT22;31711;47.158;7.346;2023-02-28T11:38:12;3.60;99.90
45983;DHT22;31711;47.158;7.346;2023-02-28T11:43:50;3.70;99.90
45983;DHT22;31711;47.158;7.346;2023-02-28T11:49:30;4.10;99.90
45983;DHT22;31711;47.158;7.346;2023-02-28T11:52:37;3.80;99.90
45983;DHT22;31711;47.158;7.346;2023-02-28T12:03:43;3.80;99.90
45983;DHT22;31711;47.158;7.346;2023-02-28T12:06:47;4.10;99.90
45983;DHT22;31711;47.158;7.346;2023-02-28T12:12:12;4.00;99.90
45983;DHT22;31711;47.158;7.346;2023-02-28T12:18:05;3.70;99.90
45983;DHT22;31711;47.158;7.346;2023-02-28T12:20:47;3.80;99.90
45983;DHT22;31711;47.158;7.346;2023-02-28T12:26:08;4.00;99.90
45983;DHT22;31711;47.158;7.346;2023-02-28T12:28:44;3.80;99.90
45983;DHT22;31711;47.158;7.346;2023-02-28T12:31:19;3.80;99.90
45983;DHT22;31711;47.158;7.346;2023-02-28T12:33:53;3.70;99.90
45983;DHT22;31711;47.158;7.346;2023-02-28T12:36:21;3.80;99.90
45983;DHT22;31711;47.158;7.346;2023-02-28T12:38:53;4.10;99.90
45983;DHT22;31711;47.158;7.346;2023-02-28T12:41:45;3.80;99.90
45983;DHT22;31711;47.158;7.346;2023-02-28T12:44:18;4.00;99.90
45983;DHT22;31711;47.158;7.346;2023-02-28T12:46:49;3.80;99.90
45983;DHT22;31711;47.158;7.346;2023-02-28T12:49:27;3.70;99.90
45983;DHT22;31711;47.158;7.346;2023-02-28T12:51:59;3.90;99.90
45983;DHT22;31711;47.158;7.346;2023-02-28T12:54:32;3.70;99.90
45983;DHT22;31711;47.158;7.346;2023-02-28T12:59:53;3.80;99.90
45983;DHT22;31711;47.158;7.346;2023-02-28T13:02:50;3.70;99.90
45983;DHT22;31711;47.158;7.346;2023-02-28T13:10:23;4.00;99.90
45983;DHT22;31711;47.158;7.346;2023-02-28T13:12:54;4.00;99.90
45983;DHT22;31711;47.158;7.346;2023-02-28T13:15:27;4.30;99.90
45983;DHT22;31711;47.158;7.346;2023-02-28T13:17:59;4.10;99.90
45983;DHT22;31711;47.158;7.346;2023-02-28T13:20:35;4.10;99.90
45983;DHT22;31711;47.158;7.346;2023-02-28T13:23:02;4.10;99.90
45983;DHT22;31711;47.158;7.346;2023-02-28T13:28:08;4.10;99.90
45983;DHT22;31711;47.158;7.346;2023-02-28T13:33:33;4.10;99.90
45983;DHT22;31711;47.158;7.346;2023-02-28T13:38:49;3.80;99.90
45983;DHT22;31711;47.158;7.346;2023-02-28T13:44:23;3.70;99.90
45983;DHT22;31711;47.158;7.346;2023-02-28T13:49:27;3.60;99.90
45983;DHT22;31711;47.158;7.346;2023-02-28T13:57:34;3.70;99.90
45983;DHT22;31711;47.158;7.346;2023-02-28T14:05:42;3.80;99.90
45983;DHT22;31711;47.158;7.346;2023-02-28T14:08:18;3.40;99.90
45983;DHT22;31711;47.158;7.346;2023-02-28T14:10:51;3.30;99.90
45983;DHT22;31711;47.158;7.346;2023-02-28T14:13:45;3.50;99.90
45983;DHT22;31711;47.158;7.346;2023-02-28T14:16:41;3.30;99.90
45983;DHT22;31711;47.158;7.346;2023-02-28T14:19:25;3.30;99.90
45983;DHT22;31711;47.158;7.346;2023-02-28T14:37:45;2.80;99.90
45983;DHT22;31711;47.158;7.346;2023-02-28T14:40:35;2.90;99.90
45983;DHT22;31711;47.158;7.346;2023-02-28T14:43:03;3.00;99.90
45983;DHT22;31711;47.158;7.346;2023-02-28T14:45:31;3.00;99.90
45983;DHT22;31711;47.158;7.346;2023-02-28T14:47:58;2.90;99.90
45983;DHT22;31711;47.158;7.346;2023-02-28T14:50:34;2.80;99.90
45983;DHT22;31711;47.158;7.346;2023-02-28T14:53:00;3.00;99.90
45983;DHT22;31711;47.158;7.346;2023-02-28T14:55:29;2.90;99.90
45983;DHT22;31711;47.158;7.346;2023-02-28T14:58:01;2.80;99.90
45983;DHT22;31711;47.158;7.346;2023-02-28T15:00:32;2.70;99.90
45983;DHT22;31711;47.158;7.346;2023-02-28T15:03:00;2.70;99.90
45983;DHT22;31711;47.158;7.346;2023-02-28T15:05:29;2.80;99.90
45983;DHT22;31711;47.158;7.346;2023-02-28T15:08:14;2.50;99.90
45983;DHT22;31711;47.158;7.346;2023-02-28T15:10:59;2.60;99.90
45983;DHT22;31711;47.158;7.346;2023-02-28T15:13:47;2.50;99.90
45983;DHT22;31711;47.158;7.346;2023-02-28T15:16:20;2.50;99.90
45983;DHT22;31711;47.158;7.346;2023-02-28T15:18:54;2.40;99.90
45983;DHT22;31711;47.158;7.346;2023-02-28T15:21:23;2.30;99.90
45983;DHT22;31711;47.158;7.346;2023-02-28T15:24:06;2.10;99.90
45983;DHT22;31711;47.158;7.346;2023-02-28T15:26:38;2.20;99.90
45983;DHT22;31711;47.158;7.346;2023-02-28T15:29:12;2.00;99.90
45983;DHT22;31711;47.158;7.346;2023-02-28T15:31:44;2.30;99.90
45983;DHT22;31711;47.158;7.346;2023-02-28T15:34:24;2.20;99.90
45983;DHT22;31711;47.158;7.346;2023-02-28T15:36:52;2.00;99.90
45983;DHT22;31711;47.158;7.346;2023-02-28T15:39:23;1.80;99.90
45983;DHT22;31711;47.158;7.346;2023-02-28T15:41:50;1.80;99.90
45983;DHT22;31711;47.158;7.346;2023-02-28T15:44:30;1.80;99.90
45983;DHT22;31711;47.158;7.346;2023-02-28T15:47:02;1.80;99.90
45983;DHT22;31711;47.158;7.346;2023-02-28T15:49:48;1.80;99.90
45983;DHT22;31711;47.158;7.346;2023-02-28T15:52:50;1.80;99.90
45983;DHT22;31711;47.158;7.346;2023-02-28T15:55:28;1.70;99.90
45983;DHT22;31711;47.158;7.346;2023-02-28T15:57:57;1.60;99.90
45983;DHT22;31711;47.158;7.346;2023-02-28T16:00:28;1.70;99.90
45983;DHT22;31711;47.158;7.346;2023-02-28T16:02:54;1.60;99.90
45983;DHT22;31711;47.158;7.346;2023-02-28T16:07:55;1.40;99.90
45983;DHT22;31711;47.158;7.346;2023-02-28T16:10:21;1.40;99.90
45983;DHT22;31711;47.158;7.346;2023-02-28T16:12:52;1.50;99.90
45983;DHT22;31711;47.158;7.346;2023-02-28T16:15:21;1.40;99.90
45983;DHT22;31711;47.158;7.346;2023-02-28T16:17:48;1.30;99.90
45983;DHT22;31711;47.158;7.346;2023-02-28T16:20:17;1.20;99.90
45983;DHT22;31711;47.158;7.346;2023-02-28T16:22:44;1.30;99.90
45983;DHT22;31711;47.158;7.346;2023-02-28T16:25:13;1.20;99.90
45983;DHT22;31711;47.158;7.346;2023-02-28T16:27:39;1.20;99.90
45983;DHT22;31711;47.158;7.346;2023-02-28T16:30:07;1.10;99.90
45983;DHT22;31711;47.158;7.346;2023-02-28T16:32:36;1.00;99.90
45983;DHT22;31711;47.158;7.346;2023-02-28T16:35:03;1.10;99.90
45983;DHT22;31711;47.158;7.346;2023-02-28T16:37:29;0.90;99.90
45983;DHT22;31711;47.158;7.346;2023-02-28T16:39:55;0.90;99.90
45983;DHT22;31711;47.158;7.346;2023-02-28T16:42:24;0.90;99.90
45983;DHT22;31711;47.158;7.346;2023-02-28T16:44:52;0.80;99.90
45983;DHT22;31711;47.158;7.346;2023-02-28T16:47:18;0.70;99.90
45983;DHT22;31711;47.158;7.346;2023-02-28T16:49:44;0.70;99.90
45983;DHT22;31711;47.158;7.346;2023-02-28T16:52:10;0.60;99.90
45983;DHT22;31711;47.158;7.346;2023-02-28T16:54:40;0.60;99.90
45983;DHT22;31711;47.158;7.346;2023-02-28T16:57:17;0.70;99.90
45983;DHT22;31711;47.158;7.346;2023-02-28T16:59:45;0.70;99.90
45983;DHT22;31711;47.158;7.346;2023-02-28T17:02:14;0.60;99.90
45983;DHT22;31711;47.158;7.346;2023-02-28T17:04:40;0.60;99.90
45983;DHT22;31711;47.158;7.346;2023-02-28T17:07:12;0.70;99.90
45983;DHT22;31711;47.158;7.346;2023-02-28T17:09:38;0.70;99.90
45983;DHT22;31711;47.158;7.346;2023-02-28T17:12:05;0.60;99.90
45983;DHT22;31711;47.158;7.346;2023-02-28T17:14:31;0.70;99.90
45983;DHT22;31711;47.158;7.346;2023-02-28T17:16:57;0.70;99.90
45983;DHT22;31711;47.158;7.346;2023-02-28T17:19:23;0.70;99.90
45983;DHT22;31711;47.158;7.346;2023-02-28T17:21:49;0.70;99.90
45983;DHT22;31711;47.158;7.346;2023-02-28T17:24:15;0.70;99.90
45983;DHT22;31711;47.158;7.346;2023-02-28T17:26:41;0.60;99.90
45983;DHT22;31711;47.158;7.346;2023-02-28T17:29:19;0.60;99.90
45983;DHT22;31711;47.158;7.346;2023-02-28T17:31:45;0.60;99.90
45983;DHT22;31711;47.158;7.346;2023-02-28T17:34:12;0.60;99.90
45983;DHT22;31711;47.158;7.346;2023-02-28T17:36:48;0.60;99.90
45983;DHT22;31711;47.158;7.346;2023-02-28T17:39:15;0.60;99.90
45983;DHT22;31711;47.158;7.346;2023-02-28T17:41:45;0.60;99.90
45983;DHT22;31711;47.158;7.346;2023-02-28T17:44:11;0.60;99.90
45983;DHT22;31711;47.158;7.346;2023-02-28T17:46:37;0.60;99.90
45983;DHT22;31711;47.158;7.346;2023-02-28T17:49:03;0.60;99.90
45983;DHT22;31711;47.158;7.346;2023-02-28T17:51:29;0.60;99.90
45983;DHT22;31711;47.158;7.346;2023-02-28T17:53:55;0.60;99.90
45983;DHT22;31711;47.158;7.346;2023-02-28T17:56:25;0.60;99.90
45983;DHT22;31711;47.158;7.346;2023-02-28T17:58:53;0.60;99.90
45983;DHT22;31711;47.158;7.346;2023-02-28T18:01:20;0.60;99.90